createdAt,value
2023-05-09T00:00:06.769Z,0.88
2023-05-09T00:02:36.452Z,0.68
2023-05-09T00:05:05.610Z,0.90
2023-05-09T00:07:34.094Z,0.77
2023-05-09T00:10:03.063Z,0.73
2023-05-09T00:12:31.711Z,0.90
2023-05-09T00:15:00.441Z,0.70
2023-05-09T00:17:31.116Z,0.90
2023-05-09T00:20:01.668Z,0.88
2023-05-09T00:22:30.527Z,0.90
2023-05-09T00:24:59.008Z,0.90
2023-05-09T00:27:30.766Z,1.00
2023-05-09T00:29:59.406Z,0.65
2023-05-09T00:32:30.046Z,1.02
2023-05-09T00:34:58.575Z,1.45
2023-05-09T00:37:27.066Z,1.25
2023-05-09T00:39:55.519Z,1.25
2023-05-09T00:42:24.098Z,1.67
2023-05-09T00:44:52.751Z,1.55
2023-05-09T00:47:22.394Z,1.60
2023-05-09T00:49:52.715Z,1.92
2023-05-09T00:52:23.548Z,1.27
2023-05-09T00:54:52.573Z,1.15
2023-05-09T00:57:21.206Z,1.00
2023-05-09T00:59:49.864Z,1.55
2023-05-09T01:02:19.308Z,1.75
2023-05-09T01:04:48.527Z,1.63
2023-05-09T01:07:26.813Z,1.27
2023-05-09T01:10:05.057Z,1.30
2023-05-09T01:12:45.372Z,0.88
2023-05-09T01:15:20.065Z,1.43
2023-05-09T01:17:55.405Z,0.90
2023-05-09T01:20:33.648Z,1.20
2023-05-09T01:23:17.944Z,1.05
2023-05-09T01:25:56.364Z,0.68
2023-05-09T01:28:38.326Z,0.93
2023-05-09T01:31:10.468Z,1.25
2023-05-09T01:33:43.995Z,1.27
2023-05-09T01:36:18.628Z,1.38
2023-05-09T01:38:50.151Z,1.08
2023-05-09T01:41:20.986Z,1.10
2023-05-09T01:43:51.984Z,1.40
2023-05-09T01:46:24.128Z,1.15
2023-05-09T01:48:54.235Z,1.25
2023-05-09T01:51:23.382Z,1.17
2023-05-09T01:53:54.010Z,1.20
2023-05-09T01:56:23.776Z,1.80
2023-05-09T01:58:53.365Z,2.05
2023-05-09T02:01:23.983Z,1.70
2023-05-09T02:03:53.845Z,2.13
2023-05-09T02:06:24.544Z,1.98
2023-05-09T02:08:53.294Z,1.65
2023-05-09T02:11:21.870Z,1.38
2023-05-09T02:13:52.054Z,1.60
2023-05-09T02:16:21.320Z,1.60
2023-05-09T02:18:52.466Z,1.50
2023-05-09T02:23:49.732Z,1.60
2023-05-09T02:26:18.948Z,2.03
2023-05-09T02:28:48.878Z,1.77
2023-05-09T02:31:19.974Z,1.80
2023-05-09T02:36:20.167Z,1.75
2023-05-09T02:38:49.124Z,2.13
2023-05-09T02:41:18.209Z,1.60
2023-05-09T02:43:47.213Z,1.38
2023-05-09T02:46:17.121Z,1.60
2023-05-09T02:48:45.653Z,1.35
2023-05-09T02:51:14.191Z,1.85
2023-05-09T02:53:44.068Z,1.60
2023-05-09T02:56:12.644Z,1.80
2023-05-09T02:58:41.129Z,1.52
2023-05-09T03:01:09.687Z,1.73
2023-05-09T03:03:38.438Z,1.85
2023-05-09T03:06:07.549Z,1.65
2023-05-09T03:08:36.161Z,2.22
2023-05-09T03:11:07.319Z,1.67
2023-05-09T03:13:36.054Z,1.95
2023-05-09T03:16:04.704Z,2.42
2023-05-09T03:18:33.284Z,1.60
2023-05-09T03:21:02.271Z,1.27
2023-05-09T03:23:31.747Z,1.70
2023-05-09T03:26:00.444Z,2.25
2023-05-09T03:28:31.105Z,2.25
2023-05-09T03:31:03.505Z,1.88
2023-05-09T03:33:32.501Z,1.90
2023-05-09T03:36:02.905Z,2.20
2023-05-09T03:38:31.735Z,1.98
2023-05-09T03:41:00.542Z,2.20
2023-05-09T03:43:30.914Z,1.92
2023-05-09T03:45:59.425Z,1.90
2023-05-09T03:48:28.503Z,1.77
2023-05-09T03:50:57.153Z,2.63
2023-05-09T03:55:57.038Z,2.30
2023-05-09T03:58:27.443Z,1.67
2023-05-09T04:00:57.848Z,2.42
2023-05-09T04:03:27.683Z,2.08
2023-05-09T04:05:56.927Z,2.35
2023-05-09T04:08:34.019Z,2.33
2023-05-09T04:11:04.380Z,2.15
2023-05-09T04:13:33.268Z,2.00
2023-05-09T04:16:07.368Z,2.40
2023-05-09T04:18:36.746Z,2.30
2023-05-09T04:21:06.213Z,2.30
2023-05-09T04:23:35.092Z,2.10
2023-05-09T04:26:04.245Z,2.53
2023-05-09T04:28:32.868Z,2.80
2023-05-09T04:31:02.221Z,2.75
2023-05-09T04:33:34.792Z,2.90
2023-05-09T04:36:06.142Z,2.47
2023-05-09T04:38:35.060Z,2.92
2023-05-09T04:41:04.656Z,3.08
2023-05-09T04:43:33.329Z,2.95
2023-05-09T04:46:02.801Z,3.40
2023-05-09T04:48:34.265Z,3.75
2023-05-09T04:51:02.886Z,3.50
2023-05-09T04:53:32.144Z,4.03
2023-05-09T04:56:02.648Z,3.10
2023-05-09T04:58:34.594Z,3.13
2023-05-09T05:01:03.793Z,3.35
2023-05-09T05:03:34.005Z,3.78
2023-05-09T05:06:02.905Z,2.97
2023-05-09T05:08:31.696Z,2.50
2023-05-09T05:11:00.522Z,2.45
2023-05-09T05:13:29.768Z,3.03
2023-05-09T05:16:02.091Z,2.22
2023-05-09T05:18:30.922Z,1.80
2023-05-09T05:21:01.707Z,1.23
2023-05-09T05:23:30.914Z,0.82
2023-05-09T05:25:59.394Z,0.63
2023-05-09T05:28:28.869Z,0.85
2023-05-09T05:30:57.476Z,0.60
2023-05-09T05:33:26.230Z,0.57
2023-05-09T05:35:55.303Z,0.55
2023-05-09T05:38:25.614Z,1.00
2023-05-09T05:40:56.989Z,0.85
2023-05-09T05:43:27.224Z,0.67
2023-05-09T05:45:56.551Z,0.60
2023-05-09T05:48:26.892Z,0.60
2023-05-09T05:50:56.575Z,0.50
2023-05-09T05:53:32.077Z,0.47
2023-05-09T05:56:01.827Z,0.43
2023-05-09T05:58:31.777Z,0.40
2023-05-09T06:01:01.061Z,0.60
2023-05-09T06:03:31.299Z,0.50
2023-05-09T06:06:06.412Z,0.60
2023-05-09T06:08:36.633Z,1.05
2023-05-09T06:11:06.200Z,1.20
2023-05-09T06:13:35.073Z,0.80
2023-05-09T06:16:18.059Z,0.32
2023-05-09T06:18:49.940Z,0.80
2023-05-09T06:21:18.641Z,0.57
2023-05-09T06:24:04.967Z,0.90
2023-05-09T06:26:37.069Z,0.50
2023-05-09T06:29:08.081Z,0.20
2023-05-09T06:34:08.136Z,0.30
2023-05-09T06:36:36.689Z,0.40
2023-05-09T06:39:06.955Z,0.50
2023-05-09T06:41:35.468Z,0.40
2023-05-09T06:44:04.030Z,0.50
2023-05-09T06:46:32.658Z,0.40
2023-05-09T06:49:02.660Z,0.50
2023-05-09T06:51:31.283Z,0.50
2023-05-09T06:53:59.967Z,0.40
2023-05-09T06:56:30.016Z,0.88
2023-05-09T06:58:58.746Z,0.50
2023-05-09T07:01:27.362Z,0.50
2023-05-09T07:03:55.914Z,0.40
2023-05-09T07:06:24.432Z,0.55
2023-05-09T07:08:53.140Z,0.60
2023-05-09T07:11:21.583Z,0.70
2023-05-09T07:13:51.736Z,0.40
2023-05-09T07:16:23.138Z,0.68
2023-05-09T07:18:51.810Z,1.23
2023-05-09T07:21:20.386Z,0.50
2023-05-09T07:23:49.213Z,0.63
2023-05-09T07:26:17.733Z,0.47
2023-05-09T07:28:46.424Z,0.52
2023-05-09T07:31:16.450Z,0.45
2023-05-09T07:33:45.204Z,0.60
2023-05-09T07:36:14.995Z,0.52
2023-05-09T07:38:43.810Z,0.32
2023-05-09T07:41:12.359Z,1.08
2023-05-09T07:43:40.966Z,0.63
2023-05-09T07:46:09.639Z,0.55
2023-05-09T07:48:39.803Z,0.50
2023-05-09T07:51:08.585Z,0.70
2023-05-09T07:53:37.164Z,0.50
2023-05-09T07:56:08.119Z,0.60
2023-05-09T08:01:05.088Z,0.52
2023-05-09T08:03:33.859Z,0.30
2023-05-09T08:06:04.323Z,0.60
2023-05-09T08:08:33.079Z,0.47
2023-05-09T08:11:01.683Z,0.20
2023-05-09T08:13:30.473Z,0.40
2023-05-09T08:15:59.385Z,0.35
2023-05-09T08:18:28.131Z,0.43
2023-05-09T08:20:56.725Z,0.40
2023-05-09T08:23:26.817Z,0.40
2023-05-09T08:25:56.090Z,0.50
2023-05-09T08:28:24.756Z,0.52
2023-05-09T08:30:53.496Z,0.40
2023-05-09T08:33:22.396Z,0.40
2023-05-09T08:35:52.575Z,0.50
2023-05-09T08:38:21.754Z,0.52
2023-05-09T08:40:51.790Z,0.57
2023-05-09T08:43:25.334Z,0.40
2023-05-09T08:45:58.908Z,0.57
2023-05-09T08:48:30.054Z,0.50
2023-05-09T08:50:59.102Z,0.63
2023-05-09T08:53:27.713Z,0.60
2023-05-09T08:55:59.753Z,0.50
2023-05-09T08:58:28.679Z,0.38
2023-05-09T09:00:57.783Z,0.40
2023-05-09T09:03:27.464Z,0.68
2023-05-09T09:05:57.143Z,3.13
2023-05-09T09:08:27.331Z,0.57
2023-05-09T09:10:57.708Z,0.45
2023-05-09T09:13:27.141Z,0.40
2023-05-09T09:15:59.294Z,0.30
2023-05-09T09:18:31.855Z,0.52
2023-05-09T09:21:07.156Z,0.38
2023-05-09T09:23:36.234Z,0.40
2023-05-09T09:26:06.343Z,0.43
2023-05-09T09:28:35.537Z,0.30
2023-05-09T09:31:20.098Z,0.43
2023-05-09T09:33:48.747Z,0.65
2023-05-09T09:36:17.268Z,0.40
2023-05-09T09:38:45.998Z,4.00
2023-05-09T09:41:16.171Z,0.40
2023-05-09T09:43:47.661Z,0.40
2023-05-09T09:46:18.591Z,0.70
2023-05-09T09:51:21.316Z,0.43
2023-05-09T09:53:50.015Z,0.40
2023-05-09T09:56:21.655Z,0.50
2023-05-09T09:58:50.585Z,0.40
2023-05-09T10:01:20.366Z,0.22
2023-05-09T10:03:49.351Z,0.30
2023-05-09T10:06:18.296Z,0.30
2023-05-09T10:08:49.156Z,0.40
2023-05-09T10:13:48.116Z,0.45
2023-05-09T10:16:17.106Z,0.50
2023-05-09T10:18:46.856Z,0.40
2023-05-09T10:21:17.091Z,0.50
2023-05-09T10:23:50.014Z,0.73
2023-05-09T10:26:27.631Z,0.30
2023-05-09T10:29:03.263Z,0.40
2023-05-09T10:31:33.969Z,0.60
2023-05-09T10:34:06.910Z,0.60
2023-05-09T10:36:36.649Z,0.30
2023-05-09T10:39:06.026Z,0.80
2023-05-09T10:41:35.042Z,0.40
2023-05-09T10:44:05.398Z,0.30
2023-05-09T10:46:34.592Z,0.70
2023-05-09T10:49:03.605Z,0.40
2023-05-09T10:51:33.205Z,0.57
2023-05-09T10:54:01.761Z,0.50
2023-05-09T10:56:33.144Z,0.60
2023-05-09T10:59:02.367Z,0.30
2023-05-09T11:01:35.522Z,0.40
2023-05-09T11:04:11.692Z,1.77
2023-05-09T11:06:49.656Z,0.40
2023-05-09T11:09:27.391Z,0.70
2023-05-09T11:11:57.735Z,0.52
2023-05-09T11:14:33.623Z,0.60
2023-05-09T11:17:05.361Z,0.43
2023-05-09T11:19:38.781Z,0.32
2023-05-09T11:22:14.938Z,0.40
2023-05-09T11:24:47.718Z,0.65
2023-05-09T11:27:17.586Z,0.40
2023-05-09T11:29:48.279Z,0.40
2023-05-09T11:34:47.539Z,0.40
2023-05-09T11:37:19.411Z,0.30
2023-05-09T11:40:03.199Z,0.40
2023-05-09T11:42:33.168Z,0.30
2023-05-09T11:45:03.490Z,0.32
2023-05-09T11:47:33.672Z,0.50
2023-05-09T11:50:02.315Z,0.50
2023-05-09T11:52:33.664Z,0.32
2023-05-09T11:55:02.655Z,0.55
2023-05-09T11:57:31.372Z,0.57
2023-05-09T12:00:02.467Z,0.90
2023-05-09T12:02:36.165Z,0.50
2023-05-09T12:05:09.713Z,0.57
2023-05-09T12:07:39.769Z,0.55
2023-05-09T12:10:09.912Z,0.30
2023-05-09T12:12:43.183Z,0.45
2023-05-09T12:15:13.982Z,0.40
2023-05-09T12:17:45.770Z,0.38
2023-05-09T12:20:14.861Z,0.75
2023-05-09T12:22:44.577Z,0.93
2023-05-09T12:25:13.962Z,0.30
2023-05-09T12:27:43.410Z,0.40
2023-05-09T12:30:16.271Z,0.63
2023-05-09T12:32:46.929Z,0.55
2023-05-09T12:35:16.621Z,1.00
2023-05-09T12:37:57.847Z,0.60
2023-05-09T12:40:27.186Z,0.32
2023-05-09T12:43:01.012Z,0.50
2023-05-09T12:45:29.665Z,0.40
2023-05-09T12:48:01.658Z,0.52
2023-05-09T12:50:35.672Z,0.73
2023-05-09T12:53:05.504Z,0.30
2023-05-09T12:55:41.050Z,0.28
2023-05-09T12:58:09.816Z,0.50
2023-05-09T13:00:46.597Z,0.40
2023-05-09T13:03:25.553Z,0.52
2023-05-09T13:05:58.719Z,0.25
2023-05-09T13:08:27.428Z,0.60
2023-05-09T13:11:08.047Z,0.25
2023-05-09T13:13:43.993Z,0.30
2023-05-09T13:16:14.290Z,0.30
2023-05-09T13:18:46.850Z,1.10
2023-05-09T13:21:15.306Z,0.50
2023-05-09T13:23:45.826Z,0.60
2023-05-09T13:26:14.649Z,0.47
2023-05-09T13:28:43.168Z,0.47
2023-05-09T13:31:11.973Z,0.50
2023-05-09T13:33:40.758Z,0.47
2023-05-09T13:36:11.219Z,0.40
2023-05-09T13:38:41.022Z,0.40
2023-05-09T13:41:10.188Z,0.82
2023-05-09T13:43:40.685Z,0.50
2023-05-09T13:46:09.426Z,0.40
2023-05-09T13:48:38.034Z,0.50
2023-05-09T13:51:08.070Z,0.50
2023-05-09T13:53:39.438Z,0.57
2023-05-09T13:56:09.743Z,0.43
2023-05-09T13:58:38.481Z,0.50
2023-05-09T14:01:07.844Z,0.63
2023-05-09T14:03:36.556Z,0.38
2023-05-09T14:06:05.634Z,0.40
2023-05-09T14:08:34.319Z,0.40
2023-05-09T14:11:04.490Z,0.40
2023-05-09T14:13:33.245Z,0.47
2023-05-09T14:16:01.923Z,0.35
2023-05-09T14:18:30.619Z,0.60
2023-05-09T14:20:59.295Z,0.55
2023-05-09T14:23:28.123Z,0.40
2023-05-09T14:25:56.680Z,0.93
2023-05-09T14:28:27.098Z,0.95
2023-05-09T14:30:55.578Z,0.50
2023-05-09T14:33:24.225Z,0.77
2023-05-09T14:35:52.998Z,0.50
2023-05-09T14:38:21.608Z,0.70
2023-05-09T14:40:50.261Z,0.40
2023-05-09T14:43:19.035Z,0.98
2023-05-09T14:45:49.210Z,0.85
2023-05-09T14:48:17.787Z,0.38
2023-05-09T14:50:46.326Z,0.45
2023-05-09T14:53:15.249Z,0.40
2023-05-09T14:55:43.841Z,0.50
2023-05-09T14:58:14.047Z,0.52
2023-05-09T15:00:42.565Z,0.40
2023-05-09T15:03:12.956Z,0.30
2023-05-09T15:05:43.003Z,0.38
2023-05-09T15:08:11.534Z,0.20
2023-05-09T15:10:40.045Z,0.80
2023-05-09T15:13:08.651Z,0.35
2023-05-09T15:15:38.575Z,0.68
2023-05-09T15:18:10.354Z,0.50
2023-05-09T15:20:40.602Z,0.43
2023-05-09T15:23:09.402Z,0.68
2023-05-09T15:25:38.048Z,0.40
2023-05-09T15:28:07.200Z,0.47
2023-05-09T15:30:38.308Z,0.40
2023-05-09T15:33:07.558Z,0.70
2023-05-09T15:35:36.155Z,0.65
2023-05-09T15:38:06.161Z,0.40
2023-05-09T15:40:35.013Z,0.32
2023-05-09T15:43:07.967Z,0.43
2023-05-09T15:45:45.539Z,0.50
2023-05-09T15:48:14.502Z,0.50
2023-05-09T15:50:43.528Z,0.75
2023-05-09T15:53:15.803Z,0.43
2023-05-09T15:55:44.806Z,0.40
2023-05-09T15:58:14.274Z,0.30
2023-05-09T16:00:42.866Z,0.40
2023-05-09T16:03:11.425Z,0.40
2023-05-09T16:05:41.123Z,0.57
2023-05-09T16:08:09.710Z,0.65
2023-05-09T16:10:39.826Z,0.38
2023-05-09T16:13:08.669Z,0.50
2023-05-09T16:15:38.012Z,0.40
2023-05-09T16:18:06.706Z,0.60
2023-05-09T16:20:35.379Z,0.55
2023-05-09T16:23:04.696Z,0.30
2023-05-09T16:25:35.302Z,0.47
2023-05-09T16:28:07.284Z,0.60
2023-05-09T16:30:36.391Z,0.65
2023-05-09T16:33:04.925Z,0.50
2023-05-09T16:35:34.170Z,0.50
2023-05-09T16:38:03.009Z,0.70
2023-05-09T16:40:31.638Z,0.35
2023-05-09T16:43:00.153Z,0.38
2023-05-09T16:45:30.171Z,0.55
2023-05-09T16:48:00.659Z,0.87
2023-05-09T16:50:30.773Z,0.50
2023-05-09T16:52:59.288Z,0.40
2023-05-09T16:55:27.873Z,0.60
2023-05-09T16:57:56.419Z,0.50
2023-05-09T17:00:25.220Z,0.30
2023-05-09T17:02:55.233Z,0.68
2023-05-09T17:05:24.059Z,0.40
2023-05-09T17:07:52.570Z,0.50
2023-05-09T17:10:21.069Z,0.50
2023-05-09T17:12:49.643Z,0.60
2023-05-09T17:15:18.383Z,0.75
2023-05-09T17:17:47.526Z,0.73
2023-05-09T17:20:18.017Z,0.45
2023-05-09T17:22:46.798Z,0.65
2023-05-09T17:25:15.329Z,0.70
2023-05-09T17:27:43.996Z,1.08
2023-05-09T17:30:13.202Z,0.73
2023-05-09T17:32:42.964Z,0.80
2023-05-09T17:35:12.486Z,0.60
2023-05-09T17:37:42.595Z,0.70
2023-05-09T17:40:12.082Z,0.95
2023-05-09T17:42:40.621Z,0.70
2023-05-09T17:45:11.158Z,0.50
2023-05-09T17:47:40.262Z,0.77
2023-05-09T17:50:10.654Z,0.50
2023-05-09T17:52:39.203Z,0.60
2023-05-09T17:55:10.151Z,0.40
2023-05-09T17:57:38.808Z,0.90
2023-05-09T18:00:09.557Z,0.70
2023-05-09T18:02:44.111Z,0.77
2023-05-09T18:05:12.752Z,0.57
2023-05-09T18:07:41.442Z,0.60
2023-05-09T18:10:12.984Z,0.90
2023-05-09T18:12:41.829Z,0.85
2023-05-09T18:15:10.862Z,1.83
2023-05-09T18:17:39.659Z,1.60
2023-05-09T18:20:09.557Z,0.93
2023-05-09T18:22:38.108Z,0.57
2023-05-09T18:25:07.656Z,0.57
2023-05-09T18:27:37.638Z,0.70
2023-05-09T18:30:06.980Z,0.60
2023-05-09T18:32:35.584Z,1.25
2023-05-09T18:35:04.360Z,1.00
2023-05-09T18:37:32.982Z,0.80
2023-05-09T18:40:01.674Z,0.80
2023-05-09T18:42:30.138Z,0.80
2023-05-09T18:45:01.065Z,0.88
2023-05-09T18:49:58.820Z,0.85
2023-05-09T18:52:29.239Z,0.98
2023-05-09T18:54:57.805Z,0.95
2023-05-09T18:57:26.348Z,0.50
2023-05-09T18:59:54.804Z,0.82
2023-05-09T19:02:24.875Z,1.02
2023-05-09T19:04:53.379Z,0.77
2023-05-09T19:07:22.867Z,0.68
2023-05-09T19:09:51.586Z,0.52
2023-05-09T19:12:20.442Z,0.63
2023-05-09T19:14:49.181Z,0.85
2023-05-09T19:17:17.781Z,1.00
2023-05-09T19:19:47.735Z,0.77
2023-05-09T19:25:02.276Z,1.15
2023-05-09T19:27:30.746Z,1.33
2023-05-09T19:30:00.179Z,1.15
2023-05-09T19:32:29.170Z,0.90
2023-05-09T19:35:00.009Z,0.98
2023-05-09T19:37:28.692Z,0.90
2023-05-09T19:39:57.144Z,1.13
2023-05-09T19:42:25.839Z,0.80
2023-05-09T19:44:54.483Z,0.98
2023-05-09T19:47:23.021Z,0.82
2023-05-09T19:49:51.470Z,1.10
2023-05-09T19:52:21.668Z,1.25
2023-05-09T19:54:50.603Z,0.95
2023-05-09T19:57:19.247Z,0.93
2023-05-09T19:59:48.542Z,0.98
2023-05-09T20:02:16.973Z,1.40
2023-05-09T20:04:49.971Z,0.68
2023-05-09T20:07:20.703Z,0.93
2023-05-09T20:09:49.192Z,0.95
2023-05-09T20:12:17.762Z,1.08
2023-05-09T20:14:46.413Z,0.90
2023-05-09T20:17:14.922Z,1.02
2023-05-09T20:19:43.364Z,1.27
2023-05-09T20:22:12.062Z,1.40
2023-05-09T20:24:42.773Z,1.52
2023-05-09T20:27:11.279Z,2.42
2023-05-09T20:29:39.662Z,2.65
2023-05-09T20:32:08.306Z,4.70
2023-05-09T20:34:36.788Z,5.57
2023-05-09T20:37:05.209Z,2.50
2023-05-09T20:39:33.623Z,1.85
2023-05-09T20:42:03.522Z,1.40
2023-05-09T20:44:32.389Z,1.48
2023-05-09T20:47:00.776Z,1.63
2023-05-09T20:49:29.188Z,1.73
2023-05-09T20:51:57.628Z,1.67
2023-05-09T20:54:26.224Z,2.83
2023-05-09T20:56:54.764Z,3.30
2023-05-09T20:59:24.706Z,2.75
2023-05-09T21:01:55.870Z,3.08
2023-05-09T21:06:52.712Z,2.35
2023-05-09T21:09:21.212Z,3.15
2023-05-09T21:11:49.715Z,2.60
2023-05-09T21:14:18.197Z,1.80
2023-05-09T21:16:48.630Z,1.58
2023-05-09T21:19:17.166Z,1.77
2023-05-09T21:21:45.700Z,2.10
2023-05-09T21:24:14.210Z,1.92
2023-05-09T21:26:42.864Z,1.85
2023-05-09T21:29:11.367Z,1.70
2023-05-09T21:31:39.969Z,1.52
2023-05-09T21:34:10.949Z,1.40
2023-05-09T21:36:39.903Z,1.30
2023-05-09T21:39:09.792Z,1.02
2023-05-09T21:41:39.030Z,1.27
2023-05-09T21:44:08.726Z,1.15
2023-05-09T21:46:37.677Z,1.45
2023-05-09T21:49:06.714Z,1.45
2023-05-09T21:51:36.808Z,1.23
2023-05-09T21:54:05.646Z,1.20
2023-05-09T21:56:34.090Z,1.42
2023-05-09T21:59:02.610Z,1.70
2023-05-09T22:01:31.259Z,1.65
2023-05-09T22:04:05.910Z,1.58
2023-05-09T22:06:34.497Z,1.40
2023-05-09T22:09:04.969Z,1.40
2023-05-09T22:11:33.830Z,1.80
2023-05-09T22:14:02.349Z,1.48
2023-05-09T22:16:31.089Z,1.70
2023-05-09T22:18:59.828Z,1.50
2023-05-09T22:21:50.028Z,2.13
2023-05-09T22:24:20.074Z,2.42
2023-05-09T22:26:48.505Z,1.90
2023-05-09T22:29:17.838Z,1.90
2023-05-09T22:31:46.489Z,2.08
2023-05-09T22:34:15.072Z,1.38
2023-05-09T22:36:44.288Z,1.58
2023-05-09T22:39:14.274Z,1.80
2023-05-09T22:41:44.204Z,1.65
2023-05-09T22:44:12.659Z,1.55
2023-05-09T22:46:41.565Z,1.83
2023-05-09T22:49:10.111Z,2.00
2023-05-09T22:51:38.670Z,1.65
2023-05-09T22:54:07.194Z,1.50
2023-05-09T22:56:35.717Z,1.10
2023-05-09T22:59:05.668Z,1.70
2023-05-09T23:01:34.222Z,1.52
2023-05-09T23:04:02.693Z,1.48
2023-05-09T23:06:31.567Z,1.20
2023-05-09T23:09:00.050Z,1.55
2023-05-09T23:11:28.545Z,2.35
2023-05-09T23:13:57.111Z,1.83
2023-05-09T23:16:27.010Z,2.28
2023-05-09T23:18:55.694Z,2.33
2023-05-09T23:21:24.224Z,1.70
2023-05-09T23:23:52.666Z,2.10
2023-05-09T23:26:21.508Z,2.20
2023-05-09T23:28:49.957Z,2.00
2023-05-09T23:31:19.542Z,1.80
2023-05-09T23:33:49.792Z,2.90
2023-05-09T23:36:18.243Z,3.20
2023-05-09T23:38:46.719Z,3.33
2023-05-09T23:41:15.349Z,2.63
2023-05-09T23:43:43.925Z,2.60
2023-05-09T23:46:12.337Z,2.40
2023-05-09T23:48:41.774Z,2.13
2023-05-09T23:51:11.742Z,1.58
2023-05-09T23:53:40.234Z,1.83
2023-05-09T23:56:09.419Z,1.52
2023-05-09T23:58:37.881Z,2.25
